Time;durP1;ratioP1;P1;durP2;ratioP2;P2;SDS_P1;SDS_P2;PMS_P1;PMS_P2;Temp;Humidity;BMP_temperature;BMP_pressure;BME280_temperature;BME280_humidity;BME280_pressure;Samples;Min_cycle;Max_cycle;Signal;HPM_P1;HPM_P2
2022/07/12 00:01:28;;;;;;;4.55;4.18;;;19.90;5.80;;;;;;5093145;28;20176;-70
2022/07/12 00:03:54;;;;;;;4.28;3.95;;;19.90;6.70;;;;;;5093008;28;20208;-69
2022/07/12 00:06:20;;;;;;;4.68;4.38;;;19.90;6.80;;;;;;5092970;28;20631;-69
2022/07/12 00:08:45;;;;;;;6.68;4.32;;;19.90;5.30;;;;;;5093114;28;20255;-68
2022/07/12 00:11:11;;;;;;;5.07;4.60;;;19.90;5.60;;;;;;5092774;28;20234;-69
2022/07/12 00:13:36;;;;;;;4.60;4.32;;;19.90;8.00;;;;;;5092613;28;20168;-69
2022/07/12 00:16:02;;;;;;;4.40;3.90;;;19.90;7.00;;;;;;5092639;28;20172;-68
2022/07/12 00:18:28;;;;;;;5.45;4.95;;;19.90;7.80;;;;;;5092572;28;20180;-69
2022/07/12 00:20:54;;;;;;;8.20;7.38;;;19.80;10.10;;;;;;5091073;28;20184;-69
2022/07/12 00:23:19;;;;;;;8.30;6.20;;;19.80;12.90;;;;;;5093041;28;20419;-69
2022/07/12 00:25:45;;;;;;;9.80;8.80;;;19.80;13.40;;;;;;5092534;28;20167;-69
2022/07/12 00:28:11;;;;;;;12.63;11.32;;;19.70;15.20;;;;;;5092876;28;20183;-68
2022/07/12 00:30:37;;;;;;;14.75;11.50;;;19.60;17.00;;;;;;5092446;28;20179;-69
2022/07/12 00:33:02;;;;;;;9.73;8.73;;;19.50;21.80;;;;;;5092852;28;20528;-69
2022/07/12 00:35:28;;;;;;;5.97;5.47;;;19.50;24.90;;;;;;5092346;28;20631;-69
2022/07/12 00:37:53;;;;;;;4.55;4.20;;;19.50;23.80;;;;;;5093031;28;20171;-67
2022/07/12 00:40:19;;;;;;;4.13;3.88;;;19.40;24.10;;;;;;5092846;28;20203;-69
2022/07/12 00:42:45;;;;;;;4.10;3.90;;;19.40;25.30;;;;;;5092914;28;20206;-69
2022/07/12 00:45:11;;;;;;;4.95;4.53;;;19.40;25.80;;;;;;5092434;28;20196;-68
2022/07/12 00:47:40;;;;;;;4.38;4.00;;;19.40;25.30;;;;;;5092718;28;20229;-70
2022/07/12 00:50:17;;;;;;;4.35;3.95;;;19.40;24.60;;;;;;5092358;28;20611;-68
2022/07/12 00:52:44;;;;;;;4.03;3.72;;;19.40;24.10;;;;;;5095119;28;20191;-69
2022/07/12 00:55:11;;;;;;;4.28;3.88;;;19.40;26.00;;;;;;5096238;28;20184;-69
2022/07/12 00:57:38;;;;;;;3.75;3.55;;;19.40;27.80;;;;;;5096065;28;20175;-69
2022/07/12 01:00:06;;;;;;;4.20;3.90;;;19.30;27.90;;;;;;5096265;28;20176;-69
2022/07/12 01:02:32;;;;;;;4.07;3.75;;;19.30;28.30;;;;;;5094948;28;20207;-68
2022/07/12 01:04:58;;;;;;;3.97;3.70;;;19.30;28.50;;;;;;5095764;28;20199;-69
2022/07/12 01:07:25;;;;;;;4.43;3.75;;;19.20;29.10;;;;;;5096141;28;20172;-69
2022/07/12 01:09:55;;;;;;;4.47;4.10;;;19.30;29.30;;;;;;5096115;28;20168;-69
2022/07/12 01:12:22;;;;;;;4.40;4.10;;;19.20;29.40;;;;;;5095599;28;20223;-68
2022/07/12 01:14:49;;;;;;;4.00;3.80;;;19.20;29.90;;;;;;5095844;28;20164;-68
2022/07/12 01:17:16;;;;;;;4.57;4.15;;;19.20;30.30;;;;;;5095578;28;20172;-68
2022/07/12 01:19:43;;;;;;;6.40;4.13;;;19.20;29.30;;;;;;5095311;28;20230;-69
2022/07/12 01:22:15;;;;;;;8.07;4.47;;;19.20;29.70;;;;;;5095762;28;20242;-69
2022/07/12 01:24:41;;;;;;;4.07;3.78;;;19.20;31.70;;;;;;5095651;28;20187;-69
2022/07/12 01:27:08;;;;;;;4.82;4.50;;;19.10;31.00;;;;;;5095727;28;20515;-69
2022/07/12 01:29:34;;;;;;;4.65;4.25;;;19.10;33.50;;;;;;5095950;28;20171;-69
2022/07/12 01:32:24;;;;;;;4.65;4.22;;;19.10;33.70;;;;;;5095564;28;20164;-69
2022/07/12 01:34:59;;;;;;;5.10;4.63;;;19.00;31.60;;;;;;5095008;28;20182;-69
2022/07/12 01:37:29;;;;;;;5.25;4.85;;;19.00;33.20;;;;;;5095403;28;20213;-69
2022/07/12 01:39:56;;;;;;;4.82;4.50;;;19.00;37.20;;;;;;5095396;28;20186;-69
2022/07/12 01:42:24;;;;;;;4.43;4.15;;;18.90;38.20;;;;;;5095247;28;20184;-69
2022/07/12 01:44:50;;;;;;;4.68;4.38;;;18.90;37.40;;;;;;5095101;28;20172;-68
2022/07/12 01:47:21;;;;;;;4.60;4.20;;;18.90;38.30;;;;;;5095330;28;20188;-69
2022/07/12 01:49:46;;;;;;;5.22;4.75;;;18.90;39.50;;;;;;5094771;28;20181;-69
2022/07/12 01:52:14;;;;;;;4.93;4.43;;;18.80;38.90;;;;;;5095101;28;20172;-69
2022/07/12 01:54:41;;;;;;;4.75;4.35;;;18.80;40.80;;;;;;5095220;28;20179;-68
2022/07/12 01:57:07;;;;;;;5.10;4.63;;;18.80;40.90;;;;;;5094929;28;20666;-69
2022/07/12 01:59:33;;;;;;;4.80;4.40;;;18.80;42.20;;;;;;5094989;28;20160;-69
2022/07/12 02:01:58;;;;;;;4.27;4.07;;;18.80;42.60;;;;;;5094973;28;20199;-68
2022/07/12 02:04:25;;;;;;;4.65;4.35;;;18.70;44.40;;;;;;5093772;28;20839;-68
2022/07/12 02:06:50;;;;;;;4.27;3.97;;;18.70;44.30;;;;;;5094828;28;20202;-68
2022/07/12 02:09:17;;;;;;;4.83;4.43;;;18.70;43.20;;;;;;5094752;28;20227;-69
2022/07/12 02:11:43;;;;;;;4.70;4.40;;;18.70;44.20;;;;;;5094906;28;20231;-68
2022/07/12 02:14:09;;;;;;;4.97;4.57;;;18.70;44.70;;;;;;5094473;28;20255;-69
2022/07/12 02:16:35;;;;;;;4.50;4.20;;;18.70;45.10;;;;;;5094482;28;20175;-68
2022/07/12 02:19:01;;;;;;;4.53;4.23;;;18.60;44.90;;;;;;5094169;28;20172;-68
2022/07/12 02:21:27;;;;;;;4.53;4.13;;;18.60;46.00;;;;;;5094349;28;20164;-68
2022/07/12 02:23:53;;;;;;;4.10;3.90;;;18.60;46.30;;;;;;5094511;28;20294;-68
2022/07/12 02:26:20;;;;;;;4.27;3.93;;;18.50;45.30;;;;;;5094610;28;20164;-69
2022/07/12 02:28:46;;;;;;;4.60;4.22;;;18.60;43.10;;;;;;5094327;28;20236;-68
2022/07/12 02:31:11;;;;;;;4.43;4.03;;;18.60;44.50;;;;;;5094078;28;20168;-68
2022/07/12 02:33:37;;;;;;;4.60;4.30;;;18.50;45.30;;;;;;5094130;28;20172;-69
2022/07/12 02:36:03;;;;;;;4.40;4.20;;;18.50;46.70;;;;;;5094207;28;20719;-68
2022/07/12 02:38:29;;;;;;;4.60;4.30;;;18.50;46.90;;;;;;5094176;28;20254;-68
2022/07/12 02:40:55;;;;;;;5.20;4.60;;;18.50;47.30;;;;;;5094047;28;20531;-68
2022/07/12 02:43:28;;;;;;;4.93;4.53;;;18.50;47.30;;;;;;5094053;28;20199;-69
2022/07/12 02:45:58;;;;;;;4.35;4.05;;;18.50;45.90;;;;;;5093603;28;20202;-68
2022/07/12 02:48:23;;;;;;;4.90;4.50;;;18.40;49.50;;;;;;5094261;28;20194;-68
2022/07/12 02:50:49;;;;;;;4.90;4.50;;;18.40;49.70;;;;;;5094024;28;20634;-69
2022/07/12 02:53:15;;;;;;;4.83;4.43;;;18.30;55.00;;;;;;5093918;28;20245;-68
2022/07/12 02:55:41;;;;;;;5.40;4.90;;;18.20;60.50;;;;;;5093953;28;20172;-68
2022/07/12 02:58:07;;;;;;;6.43;5.83;;;18.10;69.50;;;;;;5092615;28;20547;-68
2022/07/12 03:00:34;;;;;;;5.87;5.47;;;18.00;72.50;;;;;;5093775;28;20215;-68
2022/07/12 03:03:00;;;;;;;5.23;4.83;;;18.00;74.00;;;;;;5093900;28;20213;-68
2022/07/12 03:05:26;;;;;;;7.10;4.50;;;17.90;80.40;;;;;;5093834;28;20249;-68
2022/07/12 03:07:51;;;;;;;5.27;4.70;;;17.80;87.10;;;;;;5093914;28;20597;-68
2022/07/12 03:10:17;;;;;;;5.40;4.90;;;17.60;93.10;;;;;;5093651;28;20171;-68
2022/07/12 03:12:42;;;;;;;6.00;5.40;;;17.50;95.90;;;;;;5093681;28;20274;-69
2022/07/12 03:15:08;;;;;;;5.50;5.00;;;17.40;98.90;;;;;;5092475;28;20191;-69
2022/07/12 03:17:34;;;;;;;5.53;5.13;;;17.30;99.90;;;;;;5093645;28;20179;-68
2022/07/12 03:20:01;;;;;;;6.10;5.60;;;17.30;99.90;;;;;;5093207;28;20168;-68
2022/07/12 03:22:26;;;;;;;5.73;5.33;;;17.30;99.90;;;;;;5093586;28;20200;-69
2022/07/12 03:24:52;;;;;;;7.23;6.23;;;17.30;99.90;;;;;;5093537;28;20203;-68
2022/07/12 03:27:18;;;;;;;6.37;5.77;;;17.20;99.90;;;;;;5093432;28;20608;-69
2022/07/12 03:29:44;;;;;;;6.43;5.93;;;17.30;99.90;;;;;;5092483;28;20623;-69
2022/07/12 03:32:09;;;;;;;7.43;5.40;;;17.30;99.90;;;;;;5093996;28;20225;-69
2022/07/12 03:34:36;;;;;;;7.60;5.60;;;17.30;99.90;;;;;;5093577;28;20172;-69
2022/07/12 03:37:02;;;;;;;8.60;5.33;;;17.30;99.90;;;;;;5093184;28;20183;-69
2022/07/12 03:39:27;;;;;;;6.00;5.40;;;17.30;99.90;;;;;;5093441;28;20171;-69
2022/07/12 03:41:53;;;;;;;9.77;6.03;;;17.40;99.90;;;;;;5092910;28;20176;-69
2022/07/12 03:44:18;;;;;;;9.70;6.03;;;17.40;99.90;;;;;;5092417;28;20284;-69
2022/07/12 03:46:44;;;;;;;8.50;6.17;;;17.50;99.10;;;;;;5092825;28;20191;-69
2022/07/12 03:49:10;;;;;;;11.83;6.50;;;17.50;98.50;;;;;;5093175;28;20168;-69
2022/07/12 03:51:35;;;;;;;8.23;6.77;;;17.50;99.70;;;;;;5093439;28;20203;-69
2022/07/12 03:54:01;;;;;;;7.03;6.43;;;17.50;98.10;;;;;;5093115;28;20590;-69
2022/07/12 03:59:10;;;;;;;7.27;6.57;;;17.60;97.70;;;;;;5092562;28;20182;-68
2022/07/12 04:01:36;;;;;;;6.97;6.37;;;17.90;97.60;;;;;;5093172;28;20168;-69
2022/07/12 04:04:02;;;;;;;7.67;6.50;;;18.30;91.80;;;;;;5092972;28;20219;-69
2022/07/12 04:06:28;;;;;;;7.67;6.40;;;19.00;77.20;;;;;;5093103;28;20623;-69
2022/07/12 04:08:54;;;;;;;12.30;6.30;;;19.50;30.20;;;;;;5092734;28;20182;-69
2022/07/12 04:11:20;;;;;;;6.93;6.10;;;20.00;15.70;;;;;;5092244;28;20231;-69
2022/07/12 04:13:45;;;;;;;8.50;5.82;;;20.20;1.00;;;;;;5092690;28;20179;-68
2022/07/12 04:16:12;;;;;;;7.95;5.93;;;20.70;1.00;;;;;;5092672;28;20263;-69
2022/07/12 04:18:38;;;;;;;9.23;6.28;;;21.50;1.00;;;;;;5093119;28;20172;-69
2022/07/12 04:21:03;;;;;;;7.35;5.30;;;22.30;1.00;;;;;;5092872;28;20164;-69
2022/07/12 04:23:29;;;;;;;6.40;5.80;;;23.30;1.00;;;;;;5091144;28;20619;-69
2022/07/12 04:25:55;;;;;;;10.02;5.80;;;23.80;24.30;;;;;;5092570;28;20168;-69
2022/07/12 04:28:20;;;;;;;7.00;5.80;;;25.00;1.00;;;;;;5095696;28;20646;-69
2022/07/12 04:30:46;;;;;;;6.75;5.50;;;25.70;1.00;;;;;;5096942;28;20164;-69
2022/07/12 04:33:12;;;;;;;6.35;5.50;;;26.60;1.00;;;;;;5096540;28;20198;-69
2022/07/12 04:35:38;;;;;;;7.40;5.45;;;26.90;1.00;;;;;;5096337;28;20564;-69
2022/07/12 04:38:04;;;;;;;5.60;5.07;;;27.50;99.90;;;;;;5096383;28;20266;-69
2022/07/12 04:40:30;;;;;;;5.95;5.50;;;27.60;1.00;;;;;;5096221;28;20225;-69
2022/07/12 04:42:56;;;;;;;5.50;5.10;;;27.30;1.00;;;;;;5095911;28;20291;-69
2022/07/12 04:45:22;;;;;;;5.68;5.28;;;27.30;1.00;;;;;;5096266;28;20219;-69
2022/07/12 04:47:47;;;;;;;5.60;5.20;;;27.80;1.00;;;;;;5096006;28;20685;-69
2022/07/12 04:50:13;;;;;;;6.28;5.03;;;28.30;1.00;;;;;;5096220;28;20577;-69
2022/07/12 04:52:38;;;;;;;5.35;4.90;;;29.50;1.00;;;;;;5095262;28;20168;-70
2022/07/12 04:55:05;;;;;;;5.05;4.63;;;30.40;99.90;;;;;;5095572;28;20171;-70
2022/07/12 04:57:31;;;;;;;5.47;4.95;;;31.10;99.90;;;;;;5095672;28;20180;-70
2022/07/12 04:59:56;;;;;;;7.30;4.70;;;31.90;99.90;;;;;;5095877;28;20237;-70
2022/07/12 05:02:22;;;;;;;8.65;5.03;;;32.90;99.90;;;;;;5095742;28;20267;-71
2022/07/12 05:04:47;;;;;;;9.45;4.90;;;32.80;99.90;;;;;;5095931;28;20255;-69
2022/07/12 05:07:13;;;;;;;6.88;4.55;;;32.50;99.90;;;;;;5095869;28;20179;-69
2022/07/12 05:09:39;;;;;;;4.90;4.60;;;32.50;99.90;;;;;;5095294;28;20610;-70
2022/07/12 05:12:05;;;;;;;5.90;5.07;;;31.90;99.90;;;;;;5095301;28;20226;-70
2022/07/12 05:14:31;;;;;;;5.82;5.30;;;31.30;99.90;;;;;;5095526;28;20178;-70
2022/07/12 05:16:56;;;;;;;4.97;4.50;;;30.70;99.90;;;;;;5095260;28;20628;-70
2022/07/12 05:19:22;;;;;;;7.20;5.60;;;30.10;99.90;;;;;;5095380;28;20164;-70
2022/07/12 05:21:47;;;;;;;5.97;4.93;;;30.20;99.90;;;;;;5095338;28;20175;-69
2022/07/12 05:24:13;;;;;;;5.28;4.97;;;30.10;99.90;;;;;;5095053;28;20200;-69
2022/07/12 05:26:39;;;;;;;5.07;4.78;;;30.40;99.90;;;;;;5094938;28;20507;-70
2022/07/12 05:29:04;;;;;;;5.60;5.10;;;30.70;99.90;;;;;;5095405;28;20256;-70
2022/07/12 05:31:30;;;;;;;5.40;5.10;;;31.20;99.90;;;;;;5095176;28;20642;-70
2022/07/12 05:33:55;;;;;;;5.78;5.47;;;31.30;99.90;;;;;;5094839;28;20578;-70
2022/07/12 05:36:21;;;;;;;5.70;5.20;;;31.20;99.90;;;;;;5095304;28;20172;-70
2022/07/12 05:38:47;;;;;;;6.65;5.28;;;30.90;99.90;;;;;;5093224;28;20256;-70
2022/07/12 05:41:12;;;;;;;6.03;5.40;;;30.90;99.90;;;;;;5094558;28;20210;-70
2022/07/12 05:43:38;;;;;;;6.03;5.55;;;31.80;99.90;;;;;;5094959;28;20211;-70
2022/07/12 05:46:04;;;;;;;5.95;5.55;;;31.90;99.90;;;;;;5094078;28;20191;-70
2022/07/12 05:48:30;;;;;;;5.93;5.53;;;31.70;99.90;;;;;;5094808;28;20171;-70
2022/07/12 05:53:21;;;;;;;5.65;5.22;;;31.70;99.90;;;;;;5094492;28;20645;-70
2022/07/12 05:53:41;;;;;;;5.90;5.50;;;31.40;99.90;;;;;;5094342;28;20198;-70
2022/07/12 05:56:06;;;;;;;6.22;5.70;;;31.40;99.90;;;;;;5094436;28;20627;-70
2022/07/12 05:58:32;;;;;;;5.22;4.93;;;30.50;99.90;;;;;;5094209;28;20164;-73
2022/07/12 06:00:58;;;;;;;6.70;5.80;;;29.90;99.90;;;;;;5093935;28;20670;-71
2022/07/12 06:03:23;;;;;;;6.50;6.03;;;29.50;99.90;;;;;;5093501;28;20233;-71
2022/07/12 06:05:49;;;;;;;6.47;5.97;;;30.00;99.90;;;;;;5094249;28;20578;-71
2022/07/12 06:08:14;;;;;;;6.72;6.22;;;30.10;99.90;;;;;;5093863;28;20172;-70
2022/07/12 06:10:40;;;;;;;6.70;6.22;;;30.30;99.90;;;;;;5093602;28;20671;-71
2022/07/12 06:13:05;;;;;;;7.07;6.47;;;31.00;99.90;;;;;;5094367;28;20179;-71
2022/07/12 06:15:32;;;;;;;7.03;6.40;;;31.80;99.90;;;;;;5093902;28;20160;-71
2022/07/12 06:17:58;;;;;;;6.70;6.07;;;33.00;99.90;;;;;;5093992;28;20178;-71
2022/07/12 06:20:24;;;;;;;6.55;6.25;;;33.80;99.90;;;;;;5093473;28;20172;-71
2022/07/12 06:22:49;;;;;;;6.50;5.90;;;33.50;99.90;;;;;;5093566;28;20632;-72
2022/07/12 06:25:15;;;;;;;7.50;7.00;;;34.10;99.90;;;;;;5093874;28;20171;-72
2022/07/12 06:27:40;;;;;;;7.07;6.45;;;33.80;99.90;;;;;;5094417;28;20606;-72
2022/07/12 06:30:06;;;;;;;7.40;7.00;;;33.10;99.90;;;;;;5093351;28;20171;-71
2022/07/12 06:32:32;;;;;;;8.88;8.05;;;32.00;99.90;;;;;;5093996;28;20649;-72
2022/07/12 06:34:58;;;;;;;8.27;7.72;;;31.50;99.90;;;;;;5093302;28;20180;-72
2022/07/12 06:37:24;;;;;;;7.68;7.18;;;31.00;99.90;;;;;;5093479;28;20691;-72
2022/07/12 06:39:50;;;;;;;7.43;6.90;;;30.10;99.90;;;;;;5093594;28;20195;-72
2022/07/12 06:42:15;;;;;;;8.15;7.35;;;30.40;99.90;;;;;;5093665;28;20217;-72
2022/07/12 06:44:41;;;;;;;7.78;7.28;;;30.50;99.90;;;;;;5093963;28;20203;-72
2022/07/12 06:47:06;;;;;;;7.97;7.38;;;30.70;99.90;;;;;;5091942;28;20179;-72
2022/07/12 06:49:32;;;;;;;7.57;6.55;;;31.40;99.90;;;;;;5093568;28;20175;-72
2022/07/12 06:51:58;;;;;;;6.63;6.03;;;31.60;99.90;;;;;;5093754;28;20168;-72
2022/07/12 06:54:24;;;;;;;7.10;6.50;;;32.50;99.90;;;;;;5092462;28;20572;-73
2022/07/12 06:56:50;;;;;;;6.95;6.25;;;33.80;99.90;;;;;;5093442;28;20183;-74
2022/07/12 06:59:16;;;;;;;6.45;5.68;;;33.90;99.50;;;;;;5093222;28;20172;-73
2022/07/12 07:01:42;;;;;;;6.55;5.97;;;34.00;94.40;;;;;;5093840;28;20168;-73
2022/07/12 07:04:08;;;;;;;6.82;6.22;;;35.00;90.00;;;;;;5092513;28;20212;-73
2022/07/12 07:06:34;;;;;;;6.07;5.57;;;35.30;71.70;;;;;;5093121;28;20614;-72
2022/07/12 07:08:59;;;;;;;6.63;6.03;;;34.20;70.10;;;;;;5092600;28;20168;-73
2022/07/12 07:11:26;;;;;;;5.82;5.53;;;34.60;64.70;;;;;;5092758;28;20636;-71
2022/07/12 07:13:51;;;;;;;6.50;5.95;;;34.40;61.80;;;;;;5093260;28;20184;-71
2022/07/12 07:16:19;;;;;;;6.10;5.50;;;33.60;67.10;;;;;;5085422;28;20187;-72
2022/07/12 07:18:45;;;;;;;7.10;5.80;;;34.00;70.60;;;;;;5076180;28;20336;-72
2022/07/12 07:21:11;;;;;;;6.13;5.43;;;35.50;59.60;;;;;;5083021;28;20229;-73
2022/07/12 07:23:36;;;;;;;6.20;5.80;;;35.80;49.70;;;;;;5087983;28;20215;-73
2022/07/12 07:26:02;;;;;;;6.20;5.70;;;35.70;44.70;;;;;;5072490;28;20183;-73
2022/07/12 07:28:27;;;;;;;6.97;6.57;;;35.40;41.20;;;;;;5076710;28;20712;-73
2022/07/12 07:30:53;;;;;;;6.45;5.50;;;36.30;59.00;;;;;;5079921;28;20650;-73
2022/07/12 07:33:23;;;;;;;6.97;6.47;;;36.30;33.80;;;;;;5088980;28;20203;-74
2022/07/12 07:35:49;;;;;;;5.70;5.38;;;37.10;31.70;;;;;;5091407;28;20172;-74
2022/07/12 07:38:16;;;;;;;5.25;4.85;;;36.30;27.20;;;;;;5086873;28;20257;-75
2022/07/12 07:40:42;;;;;;;5.50;5.10;;;36.60;28.90;;;;;;5076730;28;20179;-75
2022/07/12 07:43:07;;;;;;;5.55;5.15;;;36.30;28.80;;;;;;5079287;28;20686;-76
2022/07/12 07:45:33;;;;;;;5.43;4.93;;;36.80;22.30;;;;;;5088834;28;20199;-76
2022/07/12 07:47:59;;;;;;;5.70;5.20;;;37.10;17.30;;;;;;5078007;28;20183;-75
2022/07/12 07:50:26;;;;;;;5.82;5.40;;;37.00;17.70;;;;;;5079614;28;20171;-74
2022/07/12 07:52:51;;;;;;;7.68;5.68;;;35.90;18.10;;;;;;5103036;28;20171;-75
2022/07/12 07:55:18;;;;;;;5.97;5.05;;;35.00;19.70;;;;;;5098084;28;20178;-73
2022/07/12 07:57:44;;;;;;;5.93;5.60;;;33.70;23.90;;;;;;5084198;28;20163;-73
2022/07/12 08:00:10;;;;;;;5.10;4.80;;;32.10;27.40;;;;;;5073583;28;20552;-73
2022/07/12 08:02:36;;;;;;;6.47;5.88;;;31.10;40.00;;;;;;5074267;28;20206;-73
2022/07/12 08:05:02;;;;;;;5.60;5.30;;;30.90;49.10;;;;;;5076674;28;20204;-74
2022/07/12 08:07:28;;;;;;;5.65;5.30;;;30.90;55.60;;;;;;5081432;28;20195;-74
2022/07/12 08:09:53;;;;;;;6.07;5.70;;;30.60;61.90;;;;;;5096050;28;20639;-74
2022/07/12 08:12:19;;;;;;;5.55;5.25;;;30.40;67.70;;;;;;5077643;28;20279;-73
2022/07/12 08:14:44;;;;;;;5.97;5.57;;;30.50;72.20;;;;;;5078960;28;20630;-74
2022/07/12 08:17:10;;;;;;;6.10;5.80;;;30.90;74.80;;;;;;5075806;28;20604;-74
2022/07/12 08:19:36;;;;;;;5.70;5.32;;;31.50;75.60;;;;;;5077014;28;20338;-74
2022/07/12 08:22:02;;;;;;;5.90;5.45;;;31.90;68.00;;;;;;5080228;28;20678;-74
2022/07/12 08:24:27;;;;;;;6.85;5.80;;;31.40;75.50;;;;;;5076293;28;20239;-74
2022/07/12 08:26:53;;;;;;;5.60;5.20;;;31.40;77.80;;;;;;5074859;28;20662;-74
2022/07/12 08:29:18;;;;;;;5.60;5.30;;;32.00;69.50;;;;;;5075757;28;20181;-75
2022/07/12 08:31:45;;;;;;;4.95;4.63;;;32.20;65.80;;;;;;5082394;28;20237;-75
2022/07/12 08:34:11;;;;;;;5.38;4.97;;;32.20;67.20;;;;;;5074335;28;20208;-74
2022/07/12 08:36:36;;;;;;;5.70;5.28;;;32.50;63.60;;;;;;5078406;28;20693;-75
2022/07/12 08:39:02;;;;;;;5.03;4.45;;;32.60;60.30;;;;;;5078823;28;20269;-75
2022/07/12 08:41:29;;;;;;;6.32;4.68;;;32.80;55.60;;;;;;5076290;28;20172;-74
2022/07/12 08:43:54;;;;;;;4.88;4.47;;;33.20;80.60;;;;;;5080965;28;20254;-75
2022/07/12 08:46:20;;;;;;;5.20;4.80;;;33.60;54.80;;;;;;5074117;28;20680;-75
2022/07/12 08:48:46;;;;;;;5.30;4.82;;;34.00;53.10;;;;;;5076519;28;20264;-75
2022/07/12 08:51:14;;;;;;;4.68;4.38;;;34.60;46.40;;;;;;5074893;28;20176;-76
2022/07/12 08:53:40;;;;;;;5.72;4.63;;;35.50;34.90;;;;;;5079212;28;20183;-75
2022/07/12 08:56:07;;;;;;;5.20;4.88;;;35.40;28.20;;;;;;5075974;28;20176;-75
2022/07/12 08:58:33;;;;;;;5.22;4.72;;;34.80;30.80;;;;;;5077684;28;20192;-75
2022/07/12 09:01:00;;;;;;;5.25;4.82;;;35.20;28.40;;;;;;5077210;28;20188;-75
2022/07/12 09:03:26;;;;;;;5.07;4.25;;;36.00;22.20;;;;;;5077324;28;20242;-75
2022/07/12 09:05:56;;;;;;;5.05;4.75;;;36.90;19.70;;;;;;5078758;28;20176;-75
2022/07/12 09:08:28;;;;;;;4.63;4.32;;;37.00;17.10;;;;;;5075363;28;20275;-75
2022/07/12 09:11:00;;;;;;;4.72;4.43;;;35.60;16.70;;;;;;5073925;28;20220;-76
2022/07/12 09:13:52;;;;;;;4.95;4.55;;;35.60;19.20;;;;;;5087371;28;20168;-75
2022/07/12 09:16:20;;;;;;;4.60;4.20;;;36.10;17.10;;;;;;5084776;28;20172;-75
2022/07/12 09:18:46;;;;;;;4.75;4.55;;;36.10;13.40;;;;;;5091946;28;20183;-75
2022/07/12 09:21:29;;;;;;;4.88;4.57;;;35.20;13.50;;;;;;5091247;28;20261;-74
2022/07/12 09:23:59;;;;;;;4.35;3.95;;;35.10;17.50;;;;;;5079665;28;20215;-75
2022/07/12 09:26:33;;;;;;;3.30;3.10;;;36.20;12.70;;;;;;5087390;28;20167;-75
2022/07/12 09:29:12;;;;;;;3.60;3.38;;;37.40;2.60;;;;;;5079124;28;20254;-75
2022/07/12 09:37:18;;;;;;;3.92;3.70;;;37.10;1.00;;;;;;5075667;28;20233;-77
2022/07/12 09:39:44;;;;;;;3.80;3.60;;;37.50;1.00;;;;;;5077661;28;20184;-74
2022/07/12 09:42:11;;;;;;;3.88;3.55;;;37.10;1.00;;;;;;5076225;28;20190;-75
2022/07/12 09:44:41;;;;;;;5.03;4.13;;;36.70;1.00;;;;;;5075141;28;20579;-76
2022/07/12 09:47:13;;;;;;;4.25;3.95;;;36.80;1.00;;;;;;5076248;28;20171;-76
2022/07/12 09:49:40;;;;;;;4.70;3.78;;;36.50;1.00;;;;;;5072048;28;20184;-75
2022/07/12 09:52:10;;;;;;;4.15;3.95;;;36.70;1.00;;;;;;5080353;28;20187;-75
2022/07/12 09:54:40;;;;;;;4.97;4.65;;;36.00;1.00;;;;;;5077003;28;20259;-75
2022/07/12 09:57:25;;;;;;;4.60;4.30;;;35.50;1.00;;;;;;5081366;28;20175;-75
2022/07/12 09:59:52;;;;;;;3.90;3.67;;;36.20;2.10;;;;;;5091224;28;20225;-75
2022/07/12 10:02:18;;;;;;;4.32;4.03;;;35.00;1.00;;;;;;5087295;28;20630;-74
2022/07/12 10:04:46;;;;;;;4.00;3.80;;;33.90;6.90;;;;;;5076885;28;20255;-74
2022/07/12 10:07:13;;;;;;;4.38;4.07;;;34.00;7.30;;;;;;5083299;28;20176;-73
2022/07/12 10:09:41;;;;;;;5.43;5.07;;;34.40;9.20;;;;;;5073437;28;20180;-73
2022/07/12 10:12:08;;;;;;;3.92;3.72;;;34.30;5.90;;;;;;5075277;28;20221;-74
2022/07/12 10:14:35;;;;;;;4.43;4.13;;;32.90;13.20;;;;;;5081758;28;20181;-74
2022/07/12 10:17:03;;;;;;;4.45;4.25;;;31.80;18.30;;;;;;5073119;28;20161;-74
2022/07/12 10:19:35;;;;;;;4.25;3.95;;;31.00;25.10;;;;;;5075832;28;20180;-73
2022/07/12 10:22:03;;;;;;;4.30;4.10;;;31.10;30.00;;;;;;5074575;28;20191;-74
2022/07/12 10:24:47;;;;;;;4.32;4.13;;;31.80;30.50;;;;;;5071959;28;20239;-74
2022/07/12 10:27:13;;;;;;;4.50;4.20;;;32.40;27.50;;;;;;5085564;28;20194;-74
2022/07/12 10:29:39;;;;;;;4.55;4.03;;;32.60;26.90;;;;;;5091454;28;20635;-75
2022/07/12 10:32:25;;;;;;;4.53;4.00;;;32.90;21.10;;;;;;5074200;28;20180;-74
2022/07/12 10:35:20;;;;;;;3.60;3.40;;;33.40;23.90;;;;;;5086517;28;20187;-74
2022/07/12 10:38:10;;;;;;;3.72;3.42;;;32.60;23.10;;;;;;5091999;28;20270;-72
2022/07/12 10:40:36;;;;;;;3.78;3.58;;;33.30;22.40;;;;;;5093949;28;20171;-75
2022/07/12 10:43:05;;;;;;;3.85;3.65;;;33.10;22.60;;;;;;5092214;28;20211;-74
2022/07/12 10:45:32;;;;;;;4.53;4.25;;;33.10;21.90;;;;;;5093186;28;20271;-74
2022/07/12 10:47:58;;;;;;;4.03;3.83;;;33.10;23.20;;;;;;5093077;28;20658;-74
2022/07/12 10:50:43;;;;;;;4.20;3.90;;;33.70;21.30;;;;;;5094014;28;20168;-75
2022/07/12 10:53:29;;;;;;;12.13;11.05;;;34.70;17.60;;;;;;5093158;28;20521;-73
2022/07/12 10:56:06;;;;;;;3.47;3.28;;;35.10;9.20;;;;;;5074969;28;20551;-72
2022/07/12 10:58:35;;;;;;;14.07;13.02;;;35.60;5.80;;;;;;5075310;28;20269;-73
2022/07/12 11:01:29;;;;;;;6.78;6.18;;;35.60;2.50;;;;;;5081936;28;20187;-73
2022/07/12 11:03:56;;;;;;;4.20;3.90;;;35.50;1.00;;;;;;5080081;28;20255;-73
2022/07/12 11:06:24;;;;;;;3.58;3.28;;;34.30;6.60;;;;;;5074879;28;20172;-73
2022/07/12 11:08:57;;;;;;;4.80;3.40;;;33.30;7.90;;;;;;5080310;28;20176;-73
2022/07/12 11:11:26;;;;;;;2.85;2.70;;;32.90;12.60;;;;;;5079265;28;20223;-73
2022/07/12 11:13:52;;;;;;;2.85;2.67;;;32.80;11.40;;;;;;5082370;28;20179;-73
2022/07/12 11:16:18;;;;;;;4.00;3.03;;;33.20;9.50;;;;;;5079327;28;20242;-73
2022/07/12 11:18:44;;;;;;;1.92;1.83;;;33.80;6.90;;;;;;5081503;28;20703;-73
2022/07/12 11:21:10;;;;;;;2.30;2.20;;;34.00;2.20;;;;;;5081851;28;20172;-72
2022/07/12 11:23:37;;;;;;;3.53;3.22;;;33.60;1.00;;;;;;5076235;28;20286;-73
2022/07/12 11:26:03;;;;;;;4.28;3.03;;;33.20;7.50;;;;;;5073261;28;20179;-73
2022/07/12 11:28:31;;;;;;;2.33;2.22;;;32.90;6.40;;;;;;5076428;28;20246;-72
2022/07/12 11:31:12;;;;;;;2.75;2.55;;;33.10;7.80;;;;;;5088865;28;20635;-73
2022/07/12 11:33:42;;;;;;;4.50;2.40;;;33.50;20.90;;;;;;5074741;28;20187;-72
2022/07/12 11:36:12;;;;;;;2.90;2.60;;;33.60;6.80;;;;;;5076981;28;20173;-72
2022/07/12 11:38:40;;;;;;;2.63;2.53;;;33.50;5.60;;;;;;5083562;28;20168;-72
2022/07/12 11:41:07;;;;;;;2.50;2.30;;;33.00;4.70;;;;;;5085904;28;20240;-72
2022/07/12 11:43:34;;;;;;;2.80;2.60;;;32.90;3.20;;;;;;5072123;28;23801;-72
2022/07/12 11:46:00;;;;;;;3.00;2.80;;;32.60;3.10;;;;;;5082780;28;20287;-73
2022/07/12 11:48:26;;;;;;;2.63;2.40;;;33.30;3.70;;;;;;5071238;28;20703;-72
2022/07/12 11:50:54;;;;;;;2.40;2.30;;;33.60;1.00;;;;;;5085180;28;20276;-72
2022/07/12 11:53:24;;;;;;;2.40;2.20;;;33.60;1.00;;;;;;5070297;28;20194;-72
2022/07/12 11:55:52;;;;;;;2.33;2.13;;;33.90;1.00;;;;;;5082725;28;20179;-72
2022/07/12 11:58:19;;;;;;;2.30;2.00;;;34.10;1.00;;;;;;5069698;28;20651;-73
2022/07/12 12:00:46;;;;;;;2.63;2.47;;;33.80;1.00;;;;;;5080016;28;20190;-72
2022/07/12 12:03:13;;;;;;;2.78;2.67;;;33.30;1.00;;;;;;5083190;28;20527;-72
2022/07/12 12:05:40;;;;;;;2.50;2.28;;;33.20;1.00;;;;;;5082632;28;20196;-73
2022/07/12 12:08:07;;;;;;;2.22;2.13;;;33.00;1.00;;;;;;5071408;28;20179;-73
2022/07/12 12:10:33;;;;;;;2.95;2.80;;;32.60;1.00;;;;;;5082519;28;20179;-73
2022/07/12 12:13:01;;;;;;;2.90;2.70;;;32.50;1.00;;;;;;5088559;28;20181;-73
2022/07/12 12:15:31;;;;;;;3.08;2.97;;;31.60;1.00;;;;;;5076095;28;20700;-72
2022/07/12 12:17:57;;;;;;;4.35;4.10;;;30.90;2.50;;;;;;5075190;28;20194;-71
2022/07/12 12:20:24;;;;;;;5.03;4.68;;;30.50;11.30;;;;;;5069556;28;20305;-72
2022/07/12 12:22:57;;;;;;;6.05;4.28;;;30.20;18.30;;;;;;5085262;28;20238;-71
2022/07/12 12:25:24;;;;;;;5.18;4.70;;;30.40;42.50;;;;;;5072539;28;20196;-71
2022/07/12 12:27:55;;;;;;;4.75;4.20;;;30.70;26.60;;;;;;5073754;28;20264;-72
2022/07/12 12:30:21;;;;;;;4.57;4.20;;;30.80;29.70;;;;;;5072564;28;20292;-71
2022/07/12 12:32:57;;;;;;;5.78;4.20;;;30.90;27.80;;;;;;5083667;28;20270;-72
2022/07/12 12:35:30;;;;;;;7.45;5.40;;;30.20;31.80;;;;;;5079621;28;20172;-72
2022/07/12 12:37:57;;;;;;;5.20;4.80;;;29.70;40.50;;;;;;5071335;28;20176;-72
2022/07/12 12:40:28;;;;;;;4.35;3.88;;;29.90;46.80;;;;;;5075038;28;20179;-71
2022/07/12 12:43:12;;;;;;;5.05;4.65;;;30.30;47.50;;;;;;5073840;28;20179;-72
2022/07/12 12:45:54;;;;;;;4.57;4.10;;;30.80;46.90;;;;;;5077197;28;20325;-72
2022/07/12 12:48:21;;;;;;;5.32;4.82;;;31.30;42.90;;;;;;5088166;28;20175;-71
2022/07/12 12:50:48;;;;;;;4.35;3.95;;;31.80;35.10;;;;;;5089782;28;20559;-71
2022/07/12 12:53:22;;;;;;;4.63;3.95;;;32.10;31.10;;;;;;5075530;28;20507;-71
2022/07/12 12:55:53;;;;;;;5.32;4.93;;;32.40;27.90;;;;;;5086409;28;20176;-72
2022/07/12 12:58:20;;;;;;;8.38;4.40;;;32.60;27.40;;;;;;5083849;28;20176;-72